sensor_id;sensor_type;location;lat;lon;timestamp;temperature;humidity
13721;DHT22;6932;51.438;5.470;2023-06-04T00:00:48;21.70;49.70
13721;DHT22;6932;51.438;5.470;2023-06-04T00:03:14;21.60;49.90
13721;DHT22;6932;51.438;5.470;2023-06-04T00:05:40;21.60;50.20
13721;DHT22;6932;51.438;5.470;2023-06-04T00:08:06;21.50;50.30
13721;DHT22;6932;51.438;5.470;2023-06-04T00:10:31;21.50;50.60
13721;DHT22;6932;51.438;5.470;2023-06-04T00:12:59;21.50;50.90
13721;DHT22;6932;51.438;5.470;2023-06-04T00:15:26;21.40;51.10
13721;DHT22;6932;51.438;5.470;2023-06-04T00:17:52;21.40;51.40
13721;DHT22;6932;51.438;5.470;2023-06-04T00:20:18;21.30;51.60
13721;DHT22;6932;51.438;5.470;2023-06-04T00:22:44;21.30;51.90
13721;DHT22;6932;51.438;5.470;2023-06-04T00:25:10;21.20;52.10
13721;DHT22;6932;51.438;5.470;2023-06-04T00:27:36;21.20;52.30
13721;DHT22;6932;51.438;5.470;2023-06-04T00:30:03;21.20;52.60
13721;DHT22;6932;51.438;5.470;2023-06-04T00:32:29;21.10;52.80
13721;DHT22;6932;51.438;5.470;2023-06-04T00:34:56;21.10;52.90
13721;DHT22;6932;51.438;5.470;2023-06-04T00:37:28;21.10;53.10
13721;DHT22;6932;51.438;5.470;2023-06-04T00:39:55;21.00;53.30
13721;DHT22;6932;51.438;5.470;2023-06-04T00:42:21;21.00;53.50
13721;DHT22;6932;51.438;5.470;2023-06-04T00:44:46;20.90;53.60
13721;DHT22;6932;51.438;5.470;2023-06-04T00:47:13;20.90;53.90
13721;DHT22;6932;51.438;5.470;2023-06-04T00:49:40;20.80;54.10
13721;DHT22;6932;51.438;5.470;2023-06-04T00:52:11;20.80;54.20
13721;DHT22;6932;51.438;5.470;2023-06-04T00:54:39;20.80;54.50
13721;DHT22;6932;51.438;5.470;2023-06-04T00:57:05;20.80;54.60
13721;DHT22;6932;51.438;5.470;2023-06-04T00:59:35;20.70;54.70
13721;DHT22;6932;51.438;5.470;2023-06-04T01:02:04;20.70;55.00
13721;DHT22;6932;51.438;5.470;2023-06-04T01:07:22;20.60;55.30
13721;DHT22;6932;51.438;5.470;2023-06-04T01:09:52;20.60;55.40
13721;DHT22;6932;51.438;5.470;2023-06-04T01:12:18;20.60;55.60
13721;DHT22;6932;51.438;5.470;2023-06-04T01:14:44;20.50;55.70
13721;DHT22;6932;51.438;5.470;2023-06-04T01:21:03;20.50;56.00
13721;DHT22;6932;51.438;5.470;2023-06-04T01:26:03;20.50;56.30
13721;DHT22;6932;51.438;5.470;2023-06-04T01:28:32;20.40;56.40
13721;DHT22;6932;51.438;5.470;2023-06-04T01:30:59;20.40;56.60
13721;DHT22;6932;51.438;5.470;2023-06-04T01:33:27;20.30;56.70
13721;DHT22;6932;51.438;5.470;2023-06-04T01:35:53;20.30;56.80
13721;DHT22;6932;51.438;5.470;2023-06-04T01:38:20;20.30;56.90
13721;DHT22;6932;51.438;5.470;2023-06-04T01:40:46;20.30;57.00
13721;DHT22;6932;51.438;5.470;2023-06-04T01:43:12;20.20;57.10
13721;DHT22;6932;51.438;5.470;2023-06-04T01:45:38;20.20;57.20
13721;DHT22;6932;51.438;5.470;2023-06-04T01:48:05;20.20;57.30
13721;DHT22;6932;51.438;5.470;2023-06-04T01:50:32;20.20;57.40
13721;DHT22;6932;51.438;5.470;2023-06-04T01:52:58;20.20;57.50
13721;DHT22;6932;51.438;5.470;2023-06-04T01:55:24;20.20;57.60
13721;DHT22;6932;51.438;5.470;2023-06-04T01:57:54;20.20;57.70
13721;DHT22;6932;51.438;5.470;2023-06-04T02:00:20;20.10;57.70
13721;DHT22;6932;51.438;5.470;2023-06-04T02:02:46;20.10;57.80
13721;DHT22;6932;51.438;5.470;2023-06-04T02:05:14;20.10;57.80
13721;DHT22;6932;51.438;5.470;2023-06-04T02:07:42;20.10;58.00
13721;DHT22;6932;51.438;5.470;2023-06-04T02:10:14;20.00;58.00
13721;DHT22;6932;51.438;5.470;2023-06-04T02:12:53;20.00;58.00
13721;DHT22;6932;51.438;5.470;2023-06-04T02:15:22;20.00;58.10
13721;DHT22;6932;51.438;5.470;2023-06-04T02:17:50;20.00;58.20
13721;DHT22;6932;51.438;5.470;2023-06-04T02:20:16;20.00;58.30
13721;DHT22;6932;51.438;5.470;2023-06-04T02:22:43;19.90;58.30
13721;DHT22;6932;51.438;5.470;2023-06-04T02:25:08;19.90;58.40
13721;DHT22;6932;51.438;5.470;2023-06-04T02:27:35;19.90;58.50
13721;DHT22;6932;51.438;5.470;2023-06-04T02:30:02;19.90;58.60
13721;DHT22;6932;51.438;5.470;2023-06-04T02:32:28;19.80;58.60
13721;DHT22;6932;51.438;5.470;2023-06-04T02:34:54;19.80;58.70
13721;DHT22;6932;51.438;5.470;2023-06-04T02:37:21;19.80;58.80
13721;DHT22;6932;51.438;5.470;2023-06-04T02:39:47;19.80;58.90
13721;DHT22;6932;51.438;5.470;2023-06-04T02:42:13;19.70;58.80
13721;DHT22;6932;51.438;5.470;2023-06-04T02:44:39;19.70;59.00
13721;DHT22;6932;51.438;5.470;2023-06-04T02:47:05;19.70;59.00
13721;DHT22;6932;51.438;5.470;2023-06-04T02:49:31;19.70;59.00
13721;DHT22;6932;51.438;5.470;2023-06-04T02:51:57;19.70;59.10
13721;DHT22;6932;51.438;5.470;2023-06-04T02:54:23;19.60;59.10
13721;DHT22;6932;51.438;5.470;2023-06-04T02:56:49;19.60;59.20
13721;DHT22;6932;51.438;5.470;2023-06-04T02:59:15;19.60;59.20
13721;DHT22;6932;51.438;5.470;2023-06-04T03:01:41;19.60;59.30
13721;DHT22;6932;51.438;5.470;2023-06-04T03:04:06;19.60;59.40
13721;DHT22;6932;51.438;5.470;2023-06-04T03:06:36;19.60;59.50
13721;DHT22;6932;51.438;5.470;2023-06-04T03:09:04;19.50;59.60
13721;DHT22;6932;51.438;5.470;2023-06-04T03:11:29;19.50;59.60
13721;DHT22;6932;51.438;5.470;2023-06-04T03:13:55;19.50;59.70
13721;DHT22;6932;51.438;5.470;2023-06-04T03:16:22;19.50;60.30
13721;DHT22;6932;51.438;5.470;2023-06-04T03:18:47;19.50;59.80
13721;DHT22;6932;51.438;5.470;2023-06-04T03:21:13;19.40;59.80
13721;DHT22;6932;51.438;5.470;2023-06-04T03:23:39;19.40;59.90
13721;DHT22;6932;51.438;5.470;2023-06-04T03:26:06;19.40;60.00
13721;DHT22;6932;51.438;5.470;2023-06-04T03:28:33;19.40;60.00
13721;DHT22;6932;51.438;5.470;2023-06-04T03:30:59;19.30;60.10
13721;DHT22;6932;51.438;5.470;2023-06-04T03:33:25;19.30;60.10
13721;DHT22;6932;51.438;5.470;2023-06-04T03:35:51;19.30;60.30
13721;DHT22;6932;51.438;5.470;2023-06-04T03:38:25;19.30;60.30
13721;DHT22;6932;51.438;5.470;2023-06-04T03:40:51;19.30;60.50
13721;DHT22;6932;51.438;5.470;2023-06-04T03:43:19;19.20;60.50
13721;DHT22;6932;51.438;5.470;2023-06-04T03:45:45;19.20;60.60
13721;DHT22;6932;51.438;5.470;2023-06-04T03:48:11;19.20;60.70
13721;DHT22;6932;51.438;5.470;2023-06-04T03:50:37;19.20;60.80
13721;DHT22;6932;51.438;5.470;2023-06-04T03:53:03;19.20;60.80
13721;DHT22;6932;51.438;5.470;2023-06-04T03:55:31;19.20;60.90
13721;DHT22;6932;51.438;5.470;2023-06-04T03:57:58;19.10;60.90
13721;DHT22;6932;51.438;5.470;2023-06-04T04:00:24;19.10;61.10
13721;DHT22;6932;51.438;5.470;2023-06-04T04:02:50;19.10;61.10
13721;DHT22;6932;51.438;5.470;2023-06-04T04:05:16;19.10;61.10
13721;DHT22;6932;51.438;5.470;2023-06-04T04:07:42;19.10;61.20
13721;DHT22;6932;51.438;5.470;2023-06-04T04:10:08;19.20;61.40
13721;DHT22;6932;51.438;5.470;2023-06-04T04:12:35;19.10;61.40
13721;DHT22;6932;51.438;5.470;2023-06-04T04:15:01;19.10;61.40
13721;DHT22;6932;51.438;5.470;2023-06-04T04:17:27;19.10;61.40
13721;DHT22;6932;51.438;5.470;2023-06-04T04:19:52;19.10;61.40
13721;DHT22;6932;51.438;5.470;2023-06-04T04:22:18;19.20;61.50
13721;DHT22;6932;51.438;5.470;2023-06-04T04:24:44;19.20;61.50
13721;DHT22;6932;51.438;5.470;2023-06-04T04:27:10;19.20;61.50
13721;DHT22;6932;51.438;5.470;2023-06-04T04:29:41;19.20;61.50
13721;DHT22;6932;51.438;5.470;2023-06-04T04:32:08;19.20;61.50
13721;DHT22;6932;51.438;5.470;2023-06-04T04:34:38;19.20;61.50
13721;DHT22;6932;51.438;5.470;2023-06-04T04:37:08;19.20;61.50
13721;DHT22;6932;51.438;5.470;2023-06-04T04:39:35;19.30;61.50
13721;DHT22;6932;51.438;5.470;2023-06-04T04:42:02;19.30;61.40
13721;DHT22;6932;51.438;5.470;2023-06-04T04:44:29;19.30;61.40
13721;DHT22;6932;51.438;5.470;2023-06-04T04:46:54;19.40;61.30
13721;DHT22;6932;51.438;5.470;2023-06-04T04:49:20;19.40;61.40
13721;DHT22;6932;51.438;5.470;2023-06-04T04:51:47;19.50;61.30
13721;DHT22;6932;51.438;5.470;2023-06-04T04:54:13;19.50;61.30
13721;DHT22;6932;51.438;5.470;2023-06-04T04:56:38;19.50;61.30
13721;DHT22;6932;51.438;5.470;2023-06-04T04:59:04;19.50;61.20
13721;DHT22;6932;51.438;5.470;2023-06-04T05:01:30;19.50;61.80
13721;DHT22;6932;51.438;5.470;2023-06-04T05:03:56;19.60;61.10
13721;DHT22;6932;51.438;5.470;2023-06-04T05:06:21;19.70;61.10
13721;DHT22;6932;51.438;5.470;2023-06-04T05:08:47;19.70;61.10
13721;DHT22;6932;51.438;5.470;2023-06-04T05:11:13;19.70;61.00
13721;DHT22;6932;51.438;5.470;2023-06-04T05:13:39;19.80;61.60
13721;DHT22;6932;51.438;5.470;2023-06-04T05:16:07;19.80;60.80
13721;DHT22;6932;51.438;5.470;2023-06-04T05:18:34;19.90;60.80
13721;DHT22;6932;51.438;5.470;2023-06-04T05:21:06;20.00;60.80
13721;DHT22;6932;51.438;5.470;2023-06-04T05:23:32;20.00;60.70
13721;DHT22;6932;51.438;5.470;2023-06-04T05:26:00;20.10;60.60
13721;DHT22;6932;51.438;5.470;2023-06-04T05:28:27;20.10;61.10
13721;DHT22;6932;51.438;5.470;2023-06-04T05:30:53;20.20;60.60
13721;DHT22;6932;51.438;5.470;2023-06-04T05:33:27;20.30;60.50
13721;DHT22;6932;51.438;5.470;2023-06-04T05:35:53;20.30;60.90
13721;DHT22;6932;51.438;5.470;2023-06-04T05:38:20;20.40;60.20
13721;DHT22;6932;51.438;5.470;2023-06-04T05:40:46;20.50;60.10
13721;DHT22;6932;51.438;5.470;2023-06-04T05:43:12;20.60;60.00
13721;DHT22;6932;51.438;5.470;2023-06-04T05:45:38;20.60;60.00
13721;DHT22;6932;51.438;5.470;2023-06-04T05:48:05;20.70;59.90
13721;DHT22;6932;51.438;5.470;2023-06-04T05:50:31;20.80;60.00
13721;DHT22;6932;51.438;5.470;2023-06-04T05:52:57;20.80;59.80
13721;DHT22;6932;51.438;5.470;2023-06-04T05:55:23;21.00;59.80
13721;DHT22;6932;51.438;5.470;2023-06-04T05:57:49;21.00;59.60
13721;DHT22;6932;51.438;5.470;2023-06-04T06:00:18;21.10;59.50
13721;DHT22;6932;51.438;5.470;2023-06-04T06:02:43;21.20;59.20
13721;DHT22;6932;51.438;5.470;2023-06-04T06:05:10;21.30;59.50
13721;DHT22;6932;51.438;5.470;2023-06-04T06:07:36;21.40;59.10
13721;DHT22;6932;51.438;5.470;2023-06-04T06:10:03;21.50;58.80
13721;DHT22;6932;51.438;5.470;2023-06-04T06:12:30;21.60;58.60
13721;DHT22;6932;51.438;5.470;2023-06-04T06:14:56;21.60;58.40
13721;DHT22;6932;51.438;5.470;2023-06-04T06:17:21;21.70;58.40
13721;DHT22;6932;51.438;5.470;2023-06-04T06:19:48;21.80;58.00
13721;DHT22;6932;51.438;5.470;2023-06-04T06:22:13;21.90;57.80
13721;DHT22;6932;51.438;5.470;2023-06-04T06:24:39;22.10;57.80
13721;DHT22;6932;51.438;5.470;2023-06-04T06:27:05;22.10;57.40
13721;DHT22;6932;51.438;5.470;2023-06-04T06:29:31;22.20;57.30
13721;DHT22;6932;51.438;5.470;2023-06-04T06:31:57;22.30;57.20
13721;DHT22;6932;51.438;5.470;2023-06-04T06:34:23;22.40;57.10
13721;DHT22;6932;51.438;5.470;2023-06-04T06:36:49;22.60;56.80
13721;DHT22;6932;51.438;5.470;2023-06-04T06:39:15;22.70;56.50
13721;DHT22;6932;51.438;5.470;2023-06-04T06:41:41;22.80;56.40
13721;DHT22;6932;51.438;5.470;2023-06-04T06:44:07;22.90;56.10
13721;DHT22;6932;51.438;5.470;2023-06-04T06:46:33;23.00;56.00
13721;DHT22;6932;51.438;5.470;2023-06-04T06:48:59;23.10;56.00
13721;DHT22;6932;51.438;5.470;2023-06-04T06:51:25;23.20;55.60
13721;DHT22;6932;51.438;5.470;2023-06-04T06:53:50;23.30;55.40
13721;DHT22;6932;51.438;5.470;2023-06-04T06:56:16;23.40;55.20
13721;DHT22;6932;51.438;5.470;2023-06-04T06:58:44;23.50;55.00
13721;DHT22;6932;51.438;5.470;2023-06-04T07:01:10;23.60;54.60
13721;DHT22;6932;51.438;5.470;2023-06-04T07:03:36;23.70;53.70
13721;DHT22;6932;51.438;5.470;2023-06-04T07:06:04;23.80;53.80
13721;DHT22;6932;51.438;5.470;2023-06-04T07:08:29;23.90;53.70
13721;DHT22;6932;51.438;5.470;2023-06-04T07:10:55;24.10;54.00
13721;DHT22;6932;51.438;5.470;2023-06-04T07:13:21;24.20;53.00
13721;DHT22;6932;51.438;5.470;2023-06-04T07:15:47;24.20;52.50
13721;DHT22;6932;51.438;5.470;2023-06-04T07:18:12;24.30;52.60
13721;DHT22;6932;51.438;5.470;2023-06-04T07:20:38;24.40;52.40
13721;DHT22;6932;51.438;5.470;2023-06-04T07:23:07;24.50;52.00
13721;DHT22;6932;51.438;5.470;2023-06-04T07:25:33;24.70;51.80
13721;DHT22;6932;51.438;5.470;2023-06-04T07:27:59;24.70;51.60
13721;DHT22;6932;51.438;5.470;2023-06-04T07:30:30;24.80;50.50
13721;DHT22;6932;51.438;5.470;2023-06-04T07:32:57;25.00;50.50
13721;DHT22;6932;51.438;5.470;2023-06-04T07:35:23;25.10;49.50
13721;DHT22;6932;51.438;5.470;2023-06-04T07:37:49;25.10;49.40
13721;DHT22;6932;51.438;5.470;2023-06-04T07:40:16;25.10;50.00
13721;DHT22;6932;51.438;5.470;2023-06-04T07:42:42;25.20;49.80
13721;DHT22;6932;51.438;5.470;2023-06-04T07:45:10;25.30;49.80
13721;DHT22;6932;51.438;5.470;2023-06-04T07:47:36;25.40;49.60
13721;DHT22;6932;51.438;5.470;2023-06-04T07:50:03;25.50;49.60
13721;DHT22;6932;51.438;5.470;2023-06-04T07:52:30;25.60;49.20
13721;DHT22;6932;51.438;5.470;2023-06-04T07:54:56;25.70;49.40
13721;DHT22;6932;51.438;5.470;2023-06-04T07:57:22;25.70;48.60
13721;DHT22;6932;51.438;5.470;2023-06-04T07:59:48;25.80;49.10
13721;DHT22;6932;51.438;5.470;2023-06-04T08:02:14;25.90;48.60
13721;DHT22;6932;51.438;5.470;2023-06-04T08:04:40;26.00;48.40
13721;DHT22;6932;51.438;5.470;2023-06-04T08:07:06;26.10;48.00
13721;DHT22;6932;51.438;5.470;2023-06-04T08:09:32;26.10;47.50
13721;DHT22;6932;51.438;5.470;2023-06-04T08:11:57;26.20;47.70
13721;DHT22;6932;51.438;5.470;2023-06-04T08:14:23;26.30;47.90
13721;DHT22;6932;51.438;5.470;2023-06-04T08:16:52;26.30;47.60
13721;DHT22;6932;51.438;5.470;2023-06-04T08:19:19;26.40;46.60
13721;DHT22;6932;51.438;5.470;2023-06-04T08:21:45;26.50;46.00
13721;DHT22;6932;51.438;5.470;2023-06-04T08:24:12;26.60;44.90
13721;DHT22;6932;51.438;5.470;2023-06-04T08:26:38;26.70;44.60
13721;DHT22;6932;51.438;5.470;2023-06-04T08:29:05;26.80;44.50
13721;DHT22;6932;51.438;5.470;2023-06-04T08:31:31;26.80;44.60
13721;DHT22;6932;51.438;5.470;2023-06-04T08:33:58;26.80;44.80
13721;DHT22;6932;51.438;5.470;2023-06-04T08:36:24;26.90;44.70
13721;DHT22;6932;51.438;5.470;2023-06-04T08:38:50;26.90;44.70
13721;DHT22;6932;51.438;5.470;2023-06-04T08:41:28;27.00;44.60
13721;DHT22;6932;51.438;5.470;2023-06-04T08:43:56;27.10;43.90
13721;DHT22;6932;51.438;5.470;2023-06-04T08:46:28;27.20;42.60
13721;DHT22;6932;51.438;5.470;2023-06-04T08:48:56;27.20;42.30
13721;DHT22;6932;51.438;5.470;2023-06-04T08:51:27;27.30;42.60
13721;DHT22;6932;51.438;5.470;2023-06-04T08:53:53;27.30;42.70
13721;DHT22;6932;51.438;5.470;2023-06-04T08:56:20;27.40;42.40
13721;DHT22;6932;51.438;5.470;2023-06-04T08:58:47;27.50;42.50
13721;DHT22;6932;51.438;5.470;2023-06-04T09:01:14;27.50;41.90
13721;DHT22;6932;51.438;5.470;2023-06-04T09:03:41;27.60;40.70
13721;DHT22;6932;51.438;5.470;2023-06-04T09:06:07;27.60;40.70
13721;DHT22;6932;51.438;5.470;2023-06-04T09:08:37;27.70;40.80
13721;DHT22;6932;51.438;5.470;2023-06-04T09:11:05;27.70;40.80
13721;DHT22;6932;51.438;5.470;2023-06-04T09:13:36;27.70;40.70
13721;DHT22;6932;51.438;5.470;2023-06-04T09:16:03;27.70;40.50
13721;DHT22;6932;51.438;5.470;2023-06-04T09:18:32;27.80;40.30
13721;DHT22;6932;51.438;5.470;2023-06-04T09:21:08;27.80;40.10
13721;DHT22;6932;51.438;5.470;2023-06-04T09:23:54;27.90;39.50
13721;DHT22;6932;51.438;5.470;2023-06-04T09:26:20;27.90;39.60
13721;DHT22;6932;51.438;5.470;2023-06-04T09:28:46;28.00;38.90
13721;DHT22;6932;51.438;5.470;2023-06-04T09:31:16;28.00;38.50
13721;DHT22;6932;51.438;5.470;2023-06-04T09:33:47;28.00;38.10
13721;DHT22;6932;51.438;5.470;2023-06-04T09:36:14;28.00;38.40
13721;DHT22;6932;51.438;5.470;2023-06-04T09:38:41;28.10;38.00
13721;DHT22;6932;51.438;5.470;2023-06-04T09:41:15;28.10;38.00
13721;DHT22;6932;51.438;5.470;2023-06-04T09:43:45;27.90;37.90
13721;DHT22;6932;51.438;5.470;2023-06-04T09:48:38;27.90;38.90
13721;DHT22;6932;51.438;5.470;2023-06-04T09:51:11;28.00;38.80
13721;DHT22;6932;51.438;5.470;2023-06-04T09:53:39;28.00;38.30
13721;DHT22;6932;51.438;5.470;2023-06-04T09:56:05;28.00;38.20
13721;DHT22;6932;51.438;5.470;2023-06-04T09:58:34;28.10;37.70
13721;DHT22;6932;51.438;5.470;2023-06-04T10:01:03;28.20;37.70
13721;DHT22;6932;51.438;5.470;2023-06-04T10:03:31;28.20;37.80
13721;DHT22;6932;51.438;5.470;2023-06-04T10:06:00;28.20;37.90
13721;DHT22;6932;51.438;5.470;2023-06-04T10:08:29;28.10;37.70
13721;DHT22;6932;51.438;5.470;2023-06-04T10:11:00;28.10;38.00
13721;DHT22;6932;51.438;5.470;2023-06-04T10:14:02;28.10;37.80
13721;DHT22;6932;51.438;5.470;2023-06-04T10:16:25;28.10;37.90
13721;DHT22;6932;51.438;5.470;2023-06-04T10:18:55;28.10;37.60
13721;DHT22;6932;51.438;5.470;2023-06-04T10:21:23;28.10;37.60
13721;DHT22;6932;51.438;5.470;2023-06-04T10:23:49;28.10;37.80
13721;DHT22;6932;51.438;5.470;2023-06-04T10:26:16;28.00;37.60
13721;DHT22;6932;51.438;5.470;2023-06-04T10:28:43;28.00;37.70
13721;DHT22;6932;51.438;5.470;2023-06-04T10:31:10;28.00;37.80
13721;DHT22;6932;51.438;5.470;2023-06-04T10:33:36;28.00;37.80
13721;DHT22;6932;51.438;5.470;2023-06-04T10:36:19;28.00;37.80
13721;DHT22;6932;51.438;5.470;2023-06-04T10:38:48;28.00;38.00
13721;DHT22;6932;51.438;5.470;2023-06-04T10:41:17;28.00;38.00
13721;DHT22;6932;51.438;5.470;2023-06-04T10:43:45;28.00;38.80
13721;DHT22;6932;51.438;5.470;2023-06-04T10:46:15;28.00;37.90
13721;DHT22;6932;51.438;5.470;2023-06-04T10:48:52;28.00;38.00
13721;DHT22;6932;51.438;5.470;2023-06-04T10:51:34;28.00;38.20
13721;DHT22;6932;51.438;5.470;2023-06-04T10:54:03;28.00;38.30
13721;DHT22;6932;51.438;5.470;2023-06-04T10:56:30;28.00;38.30
13721;DHT22;6932;51.438;5.470;2023-06-04T10:58:58;28.00;38.40
13721;DHT22;6932;51.438;5.470;2023-06-04T11:01:28;28.00;38.20
13721;DHT22;6932;51.438;5.470;2023-06-04T11:03:57;28.10;38.20
13721;DHT22;6932;51.438;5.470;2023-06-04T11:06:24;28.10;38.30
13721;DHT22;6932;51.438;5.470;2023-06-04T11:09:04;28.10;38.20
13721;DHT22;6932;51.438;5.470;2023-06-04T11:11:31;28.20;38.40
13721;DHT22;6932;51.438;5.470;2023-06-04T11:14:07;28.20;38.30
13721;DHT22;6932;51.438;5.470;2023-06-04T11:16:34;28.20;38.10
13721;DHT22;6932;51.438;5.470;2023-06-04T11:19:00;28.30;38.40
13721;DHT22;6932;51.438;5.470;2023-06-04T11:21:27;28.30;37.90
13721;DHT22;6932;51.438;5.470;2023-06-04T11:24:00;28.40;37.90
13721;DHT22;6932;51.438;5.470;2023-06-04T11:26:35;28.30;37.80
13721;DHT22;6932;51.438;5.470;2023-06-04T11:29:06;28.30;37.60
13721;DHT22;6932;51.438;5.470;2023-06-04T11:31:43;28.30;37.60
13721;DHT22;6932;51.438;5.470;2023-06-04T11:34:11;28.30;37.90
13721;DHT22;6932;51.438;5.470;2023-06-04T11:36:47;28.30;38.10
13721;DHT22;6932;51.438;5.470;2023-06-04T11:39:15;28.30;38.20
13721;DHT22;6932;51.438;5.470;2023-06-04T11:41:41;28.30;38.40
13721;DHT22;6932;51.438;5.470;2023-06-04T11:44:08;28.30;38.20
13721;DHT22;6932;51.438;5.470;2023-06-04T11:46:35;28.30;38.10
13721;DHT22;6932;51.438;5.470;2023-06-04T11:49:02;28.20;38.10
13721;DHT22;6932;51.438;5.470;2023-06-04T11:51:28;28.30;38.20
13721;DHT22;6932;51.438;5.470;2023-06-04T11:53:55;28.30;38.00
13721;DHT22;6932;51.438;5.470;2023-06-04T11:56:21;28.30;38.10
13721;DHT22;6932;51.438;5.470;2023-06-04T11:58:51;28.30;38.20
13721;DHT22;6932;51.438;5.470;2023-06-04T12:01:19;28.30;38.30
13721;DHT22;6932;51.438;5.470;2023-06-04T12:03:45;28.30;38.40
13721;DHT22;6932;51.438;5.470;2023-06-04T12:08:48;28.30;38.10
13721;DHT22;6932;51.438;5.470;2023-06-04T12:11:32;28.20;38.20
13721;DHT22;6932;51.438;5.470;2023-06-04T12:14:07;28.20;38.60
13721;DHT22;6932;51.438;5.470;2023-06-04T12:16:34;28.20;38.50
13721;DHT22;6932;51.438;5.470;2023-06-04T12:19:10;28.20;38.30
13721;DHT22;6932;51.438;5.470;2023-06-04T12:21:39;28.20;38.30
13721;DHT22;6932;51.438;5.470;2023-06-04T12:24:14;28.20;38.30
13721;DHT22;6932;51.438;5.470;2023-06-04T12:26:42;28.10;38.50
13721;DHT22;6932;51.438;5.470;2023-06-04T12:29:13;28.10;38.50
13721;DHT22;6932;51.438;5.470;2023-06-04T12:31:44;28.10;38.80
13721;DHT22;6932;51.438;5.470;2023-06-04T12:34:12;28.10;39.10
13721;DHT22;6932;51.438;5.470;2023-06-04T12:36:39;28.10;39.00
13721;DHT22;6932;51.438;5.470;2023-06-04T12:39:06;28.10;39.20
13721;DHT22;6932;51.438;5.470;2023-06-04T12:41:33;28.10;39.30
13721;DHT22;6932;51.438;5.470;2023-06-04T12:44:00;28.10;39.60
13721;DHT22;6932;51.438;5.470;2023-06-04T12:46:26;28.10;39.80
13721;DHT22;6932;51.438;5.470;2023-06-04T12:48:53;28.10;39.90
13721;DHT22;6932;51.438;5.470;2023-06-04T12:51:20;28.10;40.20
13721;DHT22;6932;51.438;5.470;2023-06-04T12:53:47;28.10;40.50
13721;DHT22;6932;51.438;5.470;2023-06-04T12:56:13;28.10;40.40
13721;DHT22;6932;51.438;5.470;2023-06-04T12:58:39;28.10;40.70
13721;DHT22;6932;51.438;5.470;2023-06-04T13:01:05;28.10;40.70
13721;DHT22;6932;51.438;5.470;2023-06-04T13:03:31;28.10;40.70
13721;DHT22;6932;51.438;5.470;2023-06-04T13:05:58;28.10;40.90
13721;DHT22;6932;51.438;5.470;2023-06-04T13:08:24;28.10;40.70
13721;DHT22;6932;51.438;5.470;2023-06-04T13:10:51;28.10;40.90
13721;DHT22;6932;51.438;5.470;2023-06-04T13:13:18;28.10;40.70
13721;DHT22;6932;51.438;5.470;2023-06-04T13:15:45;28.10;40.80
13721;DHT22;6932;51.438;5.470;2023-06-04T13:18:11;28.10;40.50
13721;DHT22;6932;51.438;5.470;2023-06-04T13:20:39;28.10;40.50
13721;DHT22;6932;51.438;5.470;2023-06-04T13:23:06;28.10;40.80
13721;DHT22;6932;51.438;5.470;2023-06-04T13:25:32;28.10;41.00
13721;DHT22;6932;51.438;5.470;2023-06-04T13:28:02;28.10;41.10
13721;DHT22;6932;51.438;5.470;2023-06-04T13:30:29;28.10;41.90
13721;DHT22;6932;51.438;5.470;2023-06-04T13:32:55;28.10;41.00
13721;DHT22;6932;51.438;5.470;2023-06-04T13:35:21;28.20;41.00
13721;DHT22;6932;51.438;5.470;2023-06-04T13:37:46;28.20;40.60
13721;DHT22;6932;51.438;5.470;2023-06-04T13:40:13;28.20;40.90
13721;DHT22;6932;51.438;5.470;2023-06-04T13:42:39;28.30;40.80
13721;DHT22;6932;51.438;5.470;2023-06-04T13:45:05;28.30;40.80
13721;DHT22;6932;51.438;5.470;2023-06-04T13:47:32;28.30;40.60
13721;DHT22;6932;51.438;5.470;2023-06-04T13:49:58;28.30;40.70
13721;DHT22;6932;51.438;5.470;2023-06-04T13:52:24;28.30;40.50
13721;DHT22;6932;51.438;5.470;2023-06-04T13:54:50;28.30;40.10
13721;DHT22;6932;51.438;5.470;2023-06-04T13:57:16;28.40;40.10
13721;DHT22;6932;51.438;5.470;2023-06-04T13:59:42;28.40;40.10
13721;DHT22;6932;51.438;5.470;2023-06-04T14:02:08;28.40;40.20
13721;DHT22;6932;51.438;5.470;2023-06-04T14:04:33;28.40;40.30
13721;DHT22;6932;51.438;5.470;2023-06-04T14:06:59;28.40;40.40
13721;DHT22;6932;51.438;5.470;2023-06-04T14:09:25;28.40;40.50
13721;DHT22;6932;51.438;5.470;2023-06-04T14:11:51;28.40;40.40
13721;DHT22;6932;51.438;5.470;2023-06-04T14:14:17;28.40;40.40
13721;DHT22;6932;51.438;5.470;2023-06-04T14:16:44;28.40;40.70
13721;DHT22;6932;51.438;5.470;2023-06-04T14:19:11;28.40;40.70
13721;DHT22;6932;51.438;5.470;2023-06-04T14:21:37;28.40;40.80
13721;DHT22;6932;51.438;5.470;2023-06-04T14:24:03;28.40;40.50
13721;DHT22;6932;51.438;5.470;2023-06-04T14:26:29;28.40;40.10
13721;DHT22;6932;51.438;5.470;2023-06-04T14:28:56;28.40;40.00
13721;DHT22;6932;51.438;5.470;2023-06-04T14:31:22;28.40;40.10
13721;DHT22;6932;51.438;5.470;2023-06-04T14:33:48;28.40;40.40
13721;DHT22;6932;51.438;5.470;2023-06-04T14:36:14;28.30;40.70
13721;DHT22;6932;51.438;5.470;2023-06-04T14:38:40;28.30;40.90
13721;DHT22;6932;51.438;5.470;2023-06-04T14:41:06;28.30;40.80
13721;DHT22;6932;51.438;5.470;2023-06-04T14:43:32;28.40;40.60
13721;DHT22;6932;51.438;5.470;2023-06-04T14:45:58;28.40;40.60
13721;DHT22;6932;51.438;5.470;2023-06-04T14:48:24;28.40;40.50
13721;DHT22;6932;51.438;5.470;2023-06-04T14:50:50;28.30;40.40
13721;DHT22;6932;51.438;5.470;2023-06-04T14:53:21;28.30;40.10
13721;DHT22;6932;51.438;5.470;2023-06-04T14:55:47;28.30;40.10
13721;DHT22;6932;51.438;5.470;2023-06-04T14:58:13;28.30;40.20
13721;DHT22;6932;51.438;5.470;2023-06-04T15:00:41;28.30;40.40
13721;DHT22;6932;51.438;5.470;2023-06-04T15:03:07;28.30;40.70
13721;DHT22;6932;51.438;5.470;2023-06-04T15:05:33;28.30;40.80
13721;DHT22;6932;51.438;5.470;2023-06-04T15:07:59;28.30;40.70
13721;DHT22;6932;51.438;5.470;2023-06-04T15:10:25;28.30;40.70
13721;DHT22;6932;51.438;5.470;2023-06-04T15:12:55;28.30;40.60
13721;DHT22;6932;51.438;5.470;2023-06-04T15:15:22;28.30;40.60
13721;DHT22;6932;51.438;5.470;2023-06-04T15:17:48;28.30;40.60
13721;DHT22;6932;51.438;5.470;2023-06-04T15:20:15;28.20;40.80
13721;DHT22;6932;51.438;5.470;2023-06-04T15:22:41;28.20;40.80
13721;DHT22;6932;51.438;5.470;2023-06-04T15:25:07;28.20;40.90
13721;DHT22;6932;51.438;5.470;2023-06-04T15:27:34;28.20;41.00
13721;DHT22;6932;51.438;5.470;2023-06-04T15:30:00;28.20;41.10
13721;DHT22;6932;51.438;5.470;2023-06-04T15:32:26;28.30;40.90
13721;DHT22;6932;51.438;5.470;2023-06-04T15:34:51;28.30;40.90
13721;DHT22;6932;51.438;5.470;2023-06-04T15:37:17;28.30;40.80
13721;DHT22;6932;51.438;5.470;2023-06-04T15:39:43;28.30;40.80
13721;DHT22;6932;51.438;5.470;2023-06-04T15:42:09;28.30;40.80
13721;DHT22;6932;51.438;5.470;2023-06-04T15:44:35;28.30;40.50
13721;DHT22;6932;51.438;5.470;2023-06-04T15:47:00;28.30;40.60
13721;DHT22;6932;51.438;5.470;2023-06-04T15:49:27;28.30;40.70
13721;DHT22;6932;51.438;5.470;2023-06-04T15:51:54;28.30;40.80
13721;DHT22;6932;51.438;5.470;2023-06-04T15:54:20;28.30;40.80
13721;DHT22;6932;51.438;5.470;2023-06-04T15:56:45;28.30;40.80
13721;DHT22;6932;51.438;5.470;2023-06-04T15:59:13;28.30;40.90